sensor_id;sensor_type;location;lat;lon;timestamp;P1;durP1;ratioP1;P2;durP2;ratioP2
3253;SDS011;1639;42.804;23.342;2023-06-14T00:01:40;5.00;;;2.03;;
3253;SDS011;1639;42.804;23.342;2023-06-14T00:04:05;5.50;;;2.50;;
3253;SDS011;1639;42.804;23.342;2023-06-14T00:06:33;13.93;;;2.83;;
3253;SDS011;1639;42.804;23.342;2023-06-14T00:08:59;5.50;;;2.30;;
3253;SDS011;1639;42.804;23.342;2023-06-14T00:11:24;6.23;;;2.93;;
3253;SDS011;1639;42.804;23.342;2023-06-14T00:13:51;5.97;;;1.90;;
3253;SDS011;1639;42.804;23.342;2023-06-14T00:16:17;7.47;;;2.63;;
3253;SDS011;1639;42.804;23.342;2023-06-14T00:18:44;9.20;;;2.50;;
3253;SDS011;1639;42.804;23.342;2023-06-14T00:21:10;5.40;;;2.13;;
3253;SDS011;1639;42.804;23.342;2023-06-14T00:23:35;6.27;;;2.47;;
3253;SDS011;1639;42.804;23.342;2023-06-14T00:26:00;5.93;;;2.00;;
3253;SDS011;1639;42.804;23.342;2023-06-14T00:28:26;7.77;;;2.50;;
3253;SDS011;1639;42.804;23.342;2023-06-14T00:30:51;6.67;;;3.60;;
3253;SDS011;1639;42.804;23.342;2023-06-14T00:33:16;9.27;;;2.93;;
3253;SDS011;1639;42.804;23.342;2023-06-14T00:35:42;5.00;;;2.10;;
3253;SDS011;1639;42.804;23.342;2023-06-14T00:38:07;5.40;;;1.93;;
3253;SDS011;1639;42.804;23.342;2023-06-14T00:40:32;6.70;;;2.13;;
3253;SDS011;1639;42.804;23.342;2023-06-14T00:42:59;10.63;;;2.83;;
3253;SDS011;1639;42.804;23.342;2023-06-14T00:45:25;5.43;;;2.17;;
3253;SDS011;1639;42.804;23.342;2023-06-14T00:47:50;7.00;;;2.40;;
3253;SDS011;1639;42.804;23.342;2023-06-14T00:50:20;9.20;;;3.20;;
3253;SDS011;1639;42.804;23.342;2023-06-14T00:52:47;6.63;;;2.43;;
3253;SDS011;1639;42.804;23.342;2023-06-14T00:55:12;5.60;;;2.83;;
3253;SDS011;1639;42.804;23.342;2023-06-14T00:57:38;5.13;;;1.80;;
3253;SDS011;1639;42.804;23.342;2023-06-14T01:00:05;9.33;;;3.03;;
3253;SDS011;1639;42.804;23.342;2023-06-14T01:02:34;9.60;;;2.40;;
3253;SDS011;1639;42.804;23.342;2023-06-14T01:05:01;6.17;;;2.80;;
3253;SDS011;1639;42.804;23.342;2023-06-14T01:13:33;4.93;;;1.87;;
3253;SDS011;1639;42.804;23.342;2023-06-14T01:16:01;6.93;;;3.27;;
3253;SDS011;1639;42.804;23.342;2023-06-14T01:18:28;6.17;;;2.67;;
3253;SDS011;1639;42.804;23.342;2023-06-14T01:20:54;6.90;;;2.60;;
3253;SDS011;1639;42.804;23.342;2023-06-14T01:23:21;10.33;;;2.80;;
3253;SDS011;1639;42.804;23.342;2023-06-14T01:25:47;5.93;;;2.43;;
3253;SDS011;1639;42.804;23.342;2023-06-14T01:28:17;5.30;;;1.87;;
3253;SDS011;1639;42.804;23.342;2023-06-14T01:30:47;5.87;;;2.20;;
3253;SDS011;1639;42.804;23.342;2023-06-14T01:33:23;6.17;;;2.40;;
3253;SDS011;1639;42.804;23.342;2023-06-14T01:35:52;5.53;;;1.87;;
3253;SDS011;1639;42.804;23.342;2023-06-14T01:38:22;6.87;;;2.10;;
3253;SDS011;1639;42.804;23.342;2023-06-14T01:40:49;9.77;;;2.70;;
3253;SDS011;1639;42.804;23.342;2023-06-14T01:43:16;7.73;;;2.23;;
3253;SDS011;1639;42.804;23.342;2023-06-14T01:45:44;5.80;;;2.90;;
3253;SDS011;1639;42.804;23.342;2023-06-14T01:48:12;5.63;;;2.23;;
3253;SDS011;1639;42.804;23.342;2023-06-14T01:50:37;5.00;;;2.07;;
3253;SDS011;1639;42.804;23.342;2023-06-14T01:53:03;6.20;;;1.90;;
3253;SDS011;1639;42.804;23.342;2023-06-14T01:55:32;8.13;;;2.53;;
3253;SDS011;1639;42.804;23.342;2023-06-14T01:58:05;5.90;;;2.20;;
3253;SDS011;1639;42.804;23.342;2023-06-14T02:00:31;5.97;;;2.10;;
3253;SDS011;1639;42.804;23.342;2023-06-14T02:02:56;5.77;;;2.23;;
3253;SDS011;1639;42.804;23.342;2023-06-14T02:05:22;5.47;;;2.00;;
3253;SDS011;1639;42.804;23.342;2023-06-14T02:07:47;6.80;;;2.53;;
3253;SDS011;1639;42.804;23.342;2023-06-14T02:10:13;7.20;;;3.00;;
3253;SDS011;1639;42.804;23.342;2023-06-14T02:12:39;5.47;;;2.27;;
3253;SDS011;1639;42.804;23.342;2023-06-14T02:15:05;5.20;;;2.20;;
3253;SDS011;1639;42.804;23.342;2023-06-14T02:17:32;6.50;;;2.57;;
3253;SDS011;1639;42.804;23.342;2023-06-14T02:19:57;5.37;;;2.10;;
3253;SDS011;1639;42.804;23.342;2023-06-14T02:22:22;6.77;;;3.23;;
3253;SDS011;1639;42.804;23.342;2023-06-14T02:24:48;5.47;;;1.93;;
3253;SDS011;1639;42.804;23.342;2023-06-14T02:27:13;6.60;;;2.30;;
3253;SDS011;1639;42.804;23.342;2023-06-14T02:29:39;5.37;;;2.37;;
3253;SDS011;1639;42.804;23.342;2023-06-14T02:32:05;5.60;;;2.20;;
3253;SDS011;1639;42.804;23.342;2023-06-14T02:34:32;9.37;;;3.70;;
3253;SDS011;1639;42.804;23.342;2023-06-14T02:36:58;7.00;;;1.93;;
3253;SDS011;1639;42.804;23.342;2023-06-14T02:39:24;6.27;;;2.20;;
3253;SDS011;1639;42.804;23.342;2023-06-14T02:41:49;6.40;;;2.23;;
3253;SDS011;1639;42.804;23.342;2023-06-14T02:44:16;10.00;;;2.60;;
3253;SDS011;1639;42.804;23.342;2023-06-14T02:46:43;9.13;;;3.57;;
3253;SDS011;1639;42.804;23.342;2023-06-14T02:49:09;5.20;;;2.30;;
3253;SDS011;1639;42.804;23.342;2023-06-14T02:51:34;6.57;;;2.93;;
3253;SDS011;1639;42.804;23.342;2023-06-14T02:54:00;5.40;;;2.07;;
3253;SDS011;1639;42.804;23.342;2023-06-14T02:56:25;7.57;;;1.97;;
3253;SDS011;1639;42.804;23.342;2023-06-14T02:58:51;8.73;;;2.87;;
3253;SDS011;1639;42.804;23.342;2023-06-14T03:01:16;6.10;;;2.80;;
3253;SDS011;1639;42.804;23.342;2023-06-14T03:03:43;5.80;;;2.17;;
3253;SDS011;1639;42.804;23.342;2023-06-14T03:06:08;6.23;;;2.47;;
3253;SDS011;1639;42.804;23.342;2023-06-14T03:08:34;6.17;;;2.60;;
3253;SDS011;1639;42.804;23.342;2023-06-14T03:11:04;6.57;;;2.93;;
3253;SDS011;1639;42.804;23.342;2023-06-14T03:13:33;5.53;;;2.03;;
3253;SDS011;1639;42.804;23.342;2023-06-14T03:16:02;10.13;;;2.87;;
3253;SDS011;1639;42.804;23.342;2023-06-14T03:18:29;5.67;;;2.87;;
3253;SDS011;1639;42.804;23.342;2023-06-14T03:20:56;5.00;;;1.83;;
3253;SDS011;1639;42.804;23.342;2023-06-14T03:23:23;9.53;;;3.20;;
3253;SDS011;1639;42.804;23.342;2023-06-14T03:25:50;5.80;;;2.73;;
3253;SDS011;1639;42.804;23.342;2023-06-14T03:28:16;7.43;;;2.73;;
3253;SDS011;1639;42.804;23.342;2023-06-14T03:30:42;7.80;;;2.87;;
3253;SDS011;1639;42.804;23.342;2023-06-14T03:33:07;6.30;;;3.00;;
3253;SDS011;1639;42.804;23.342;2023-06-14T03:35:33;6.50;;;2.57;;
3253;SDS011;1639;42.804;23.342;2023-06-14T03:37:58;5.70;;;2.53;;
3253;SDS011;1639;42.804;23.342;2023-06-14T03:40:24;7.03;;;2.03;;
3253;SDS011;1639;42.804;23.342;2023-06-14T03:42:53;7.43;;;2.70;;
3253;SDS011;1639;42.804;23.342;2023-06-14T03:45:21;5.97;;;2.77;;
3253;SDS011;1639;42.804;23.342;2023-06-14T03:47:47;7.40;;;2.93;;
3253;SDS011;1639;42.804;23.342;2023-06-14T03:50:12;7.50;;;3.47;;
3253;SDS011;1639;42.804;23.342;2023-06-14T03:52:38;7.70;;;3.00;;
3253;SDS011;1639;42.804;23.342;2023-06-14T03:55:03;6.07;;;2.80;;
3253;SDS011;1639;42.804;23.342;2023-06-14T03:57:29;6.17;;;2.70;;
3253;SDS011;1639;42.804;23.342;2023-06-14T03:59:55;5.57;;;2.80;;
3253;SDS011;1639;42.804;23.342;2023-06-14T04:02:21;5.77;;;2.20;;
3253;SDS011;1639;42.804;23.342;2023-06-14T04:04:47;9.67;;;2.80;;
3253;SDS011;1639;42.804;23.342;2023-06-14T04:07:13;5.93;;;2.50;;
3253;SDS011;1639;42.804;23.342;2023-06-14T04:09:39;6.13;;;2.40;;
3253;SDS011;1639;42.804;23.342;2023-06-14T04:12:06;5.70;;;2.20;;
3253;SDS011;1639;42.804;23.342;2023-06-14T04:14:33;5.40;;;2.50;;
3253;SDS011;1639;42.804;23.342;2023-06-14T04:16:59;5.43;;;2.70;;
3253;SDS011;1639;42.804;23.342;2023-06-14T04:19:25;6.20;;;3.03;;
3253;SDS011;1639;42.804;23.342;2023-06-14T04:21:50;6.53;;;2.57;;
3253;SDS011;1639;42.804;23.342;2023-06-14T04:24:16;5.43;;;2.60;;
3253;SDS011;1639;42.804;23.342;2023-06-14T04:26:44;5.20;;;1.90;;
3253;SDS011;1639;42.804;23.342;2023-06-14T04:29:12;6.83;;;2.40;;
3253;SDS011;1639;42.804;23.342;2023-06-14T04:31:42;9.93;;;2.57;;
3253;SDS011;1639;42.804;23.342;2023-06-14T04:34:09;6.63;;;2.67;;
3253;SDS011;1639;42.804;23.342;2023-06-14T04:36:40;6.30;;;2.20;;
3253;SDS011;1639;42.804;23.342;2023-06-14T04:39:16;6.87;;;2.50;;
3253;SDS011;1639;42.804;23.342;2023-06-14T04:41:46;5.50;;;2.10;;
3253;SDS011;1639;42.804;23.342;2023-06-14T04:44:11;7.27;;;2.03;;
3253;SDS011;1639;42.804;23.342;2023-06-14T04:46:37;6.67;;;2.87;;
3253;SDS011;1639;42.804;23.342;2023-06-14T04:49:10;5.47;;;2.37;;
3253;SDS011;1639;42.804;23.342;2023-06-14T04:51:45;7.47;;;2.93;;
3253;SDS011;1639;42.804;23.342;2023-06-14T04:54:12;6.63;;;2.70;;
3253;SDS011;1639;42.804;23.342;2023-06-14T04:56:42;7.40;;;2.87;;
3253;SDS011;1639;42.804;23.342;2023-06-14T04:59:08;7.93;;;2.67;;
3253;SDS011;1639;42.804;23.342;2023-06-14T05:01:36;7.63;;;3.10;;
3253;SDS011;1639;42.804;23.342;2023-06-14T05:04:02;6.20;;;2.80;;
3253;SDS011;1639;42.804;23.342;2023-06-14T05:06:28;7.70;;;3.43;;
3253;SDS011;1639;42.804;23.342;2023-06-14T05:08:54;12.50;;;3.90;;
3253;SDS011;1639;42.804;23.342;2023-06-14T05:11:20;8.80;;;3.33;;
3253;SDS011;1639;42.804;23.342;2023-06-14T05:13:45;9.60;;;4.00;;
3253;SDS011;1639;42.804;23.342;2023-06-14T05:16:11;7.10;;;2.83;;
3253;SDS011;1639;42.804;23.342;2023-06-14T05:18:37;8.90;;;4.63;;
3253;SDS011;1639;42.804;23.342;2023-06-14T05:21:05;16.13;;;4.67;;
3253;SDS011;1639;42.804;23.342;2023-06-14T05:23:31;13.40;;;4.00;;
3253;SDS011;1639;42.804;23.342;2023-06-14T05:25:56;7.23;;;3.93;;
3253;SDS011;1639;42.804;23.342;2023-06-14T05:28:22;9.07;;;3.87;;
3253;SDS011;1639;42.804;23.342;2023-06-14T05:30:47;8.23;;;3.60;;
3253;SDS011;1639;42.804;23.342;2023-06-14T05:33:13;7.17;;;3.83;;
3253;SDS011;1639;42.804;23.342;2023-06-14T05:35:38;7.00;;;3.70;;
3253;SDS011;1639;42.804;23.342;2023-06-14T05:38:03;8.33;;;4.80;;
3253;SDS011;1639;42.804;23.342;2023-06-14T05:40:29;14.63;;;3.40;;
3253;SDS011;1639;42.804;23.342;2023-06-14T05:42:54;8.33;;;3.73;;
3253;SDS011;1639;42.804;23.342;2023-06-14T05:45:20;7.60;;;4.37;;
3253;SDS011;1639;42.804;23.342;2023-06-14T05:47:45;11.43;;;3.97;;
3253;SDS011;1639;42.804;23.342;2023-06-14T05:50:11;7.97;;;4.33;;
3253;SDS011;1639;42.804;23.342;2023-06-14T05:52:36;5.77;;;3.33;;
3253;SDS011;1639;42.804;23.342;2023-06-14T05:55:02;8.07;;;4.80;;
3253;SDS011;1639;42.804;23.342;2023-06-14T05:57:28;7.83;;;3.80;;
3253;SDS011;1639;42.804;23.342;2023-06-14T05:59:54;10.00;;;4.43;;
3253;SDS011;1639;42.804;23.342;2023-06-14T06:02:19;7.63;;;4.20;;
3253;SDS011;1639;42.804;23.342;2023-06-14T06:04:45;8.90;;;5.30;;
3253;SDS011;1639;42.804;23.342;2023-06-14T06:07:10;13.10;;;4.27;;
3253;SDS011;1639;42.804;23.342;2023-06-14T06:09:35;7.77;;;2.97;;
3253;SDS011;1639;42.804;23.342;2023-06-14T06:12:01;12.97;;;3.50;;
3253;SDS011;1639;42.804;23.342;2023-06-14T06:14:26;10.50;;;4.10;;
3253;SDS011;1639;42.804;23.342;2023-06-14T06:16:52;7.20;;;4.17;;
3253;SDS011;1639;42.804;23.342;2023-06-14T06:19:18;8.53;;;2.83;;
3253;SDS011;1639;42.804;23.342;2023-06-14T06:21:44;8.93;;;3.97;;
3253;SDS011;1639;42.804;23.342;2023-06-14T06:24:09;7.10;;;4.07;;
3253;SDS011;1639;42.804;23.342;2023-06-14T06:26:34;8.23;;;4.10;;
3253;SDS011;1639;42.804;23.342;2023-06-14T06:29:00;6.37;;;3.50;;
3253;SDS011;1639;42.804;23.342;2023-06-14T06:31:25;7.60;;;3.20;;
3253;SDS011;1639;42.804;23.342;2023-06-14T06:33:53;8.60;;;4.10;;
3253;SDS011;1639;42.804;23.342;2023-06-14T06:36:21;6.57;;;3.30;;
3253;SDS011;1639;42.804;23.342;2023-06-14T06:38:47;8.83;;;3.03;;
3253;SDS011;1639;42.804;23.342;2023-06-14T06:41:13;7.47;;;3.43;;
3253;SDS011;1639;42.804;23.342;2023-06-14T06:43:38;9.10;;;3.67;;
3253;SDS011;1639;42.804;23.342;2023-06-14T06:46:03;15.47;;;4.03;;
3253;SDS011;1639;42.804;23.342;2023-06-14T06:48:29;12.10;;;3.90;;
3253;SDS011;1639;42.804;23.342;2023-06-14T06:50:55;9.90;;;4.23;;
3253;SDS011;1639;42.804;23.342;2023-06-14T06:53:20;9.30;;;3.90;;
3253;SDS011;1639;42.804;23.342;2023-06-14T06:55:46;10.67;;;5.00;;
3253;SDS011;1639;42.804;23.342;2023-06-14T06:58:11;15.77;;;5.87;;
3253;SDS011;1639;42.804;23.342;2023-06-14T07:00:37;9.50;;;4.63;;
3253;SDS011;1639;42.804;23.342;2023-06-14T07:03:02;10.97;;;4.07;;
3253;SDS011;1639;42.804;23.342;2023-06-14T07:05:28;9.03;;;3.53;;
3253;SDS011;1639;42.804;23.342;2023-06-14T07:07:54;6.20;;;3.40;;
3253;SDS011;1639;42.804;23.342;2023-06-14T07:10:20;12.00;;;3.87;;
3253;SDS011;1639;42.804;23.342;2023-06-14T07:12:45;9.40;;;4.10;;
3253;SDS011;1639;42.804;23.342;2023-06-14T07:15:11;8.07;;;4.17;;
3253;SDS011;1639;42.804;23.342;2023-06-14T07:17:37;8.90;;;4.37;;
3253;SDS011;1639;42.804;23.342;2023-06-14T07:20:03;11.33;;;4.33;;
3253;SDS011;1639;42.804;23.342;2023-06-14T07:22:42;10.70;;;5.07;;
3253;SDS011;1639;42.804;23.342;2023-06-14T07:25:11;9.23;;;3.70;;
3253;SDS011;1639;42.804;23.342;2023-06-14T07:27:43;7.73;;;4.30;;
3253;SDS011;1639;42.804;23.342;2023-06-14T07:30:09;7.67;;;3.77;;
3253;SDS011;1639;42.804;23.342;2023-06-14T07:32:35;9.90;;;5.07;;
3253;SDS011;1639;42.804;23.342;2023-06-14T07:35:01;10.37;;;4.70;;
3253;SDS011;1639;42.804;23.342;2023-06-14T07:37:28;9.50;;;4.20;;
3253;SDS011;1639;42.804;23.342;2023-06-14T07:39:53;9.97;;;4.03;;
3253;SDS011;1639;42.804;23.342;2023-06-14T07:42:18;7.87;;;4.63;;
3253;SDS011;1639;42.804;23.342;2023-06-14T07:44:44;7.80;;;3.73;;
3253;SDS011;1639;42.804;23.342;2023-06-14T07:47:10;14.23;;;4.50;;
3253;SDS011;1639;42.804;23.342;2023-06-14T07:49:35;7.57;;;4.13;;
3253;SDS011;1639;42.804;23.342;2023-06-14T07:52:00;10.57;;;4.90;;
3253;SDS011;1639;42.804;23.342;2023-06-14T07:54:26;11.63;;;5.33;;
3253;SDS011;1639;42.804;23.342;2023-06-14T07:56:52;12.33;;;5.63;;
3253;SDS011;1639;42.804;23.342;2023-06-14T07:59:18;10.23;;;4.03;;
3253;SDS011;1639;42.804;23.342;2023-06-14T08:01:44;11.80;;;6.67;;
3253;SDS011;1639;42.804;23.342;2023-06-14T08:04:15;7.87;;;4.13;;
3253;SDS011;1639;42.804;23.342;2023-06-14T08:06:40;9.40;;;4.70;;
3253;SDS011;1639;42.804;23.342;2023-06-14T08:09:09;8.97;;;4.80;;
3253;SDS011;1639;42.804;23.342;2023-06-14T08:11:35;12.87;;;4.70;;
3253;SDS011;1639;42.804;23.342;2023-06-14T08:14:00;7.30;;;3.60;;
3253;SDS011;1639;42.804;23.342;2023-06-14T08:16:26;6.10;;;3.00;;
3253;SDS011;1639;42.804;23.342;2023-06-14T08:18:51;8.87;;;3.70;;
3253;SDS011;1639;42.804;23.342;2023-06-14T08:21:17;9.73;;;3.80;;
3253;SDS011;1639;42.804;23.342;2023-06-14T08:23:43;7.40;;;3.47;;
3253;SDS011;1639;42.804;23.342;2023-06-14T08:26:08;9.17;;;4.33;;
3253;SDS011;1639;42.804;23.342;2023-06-14T08:28:34;8.53;;;3.80;;
3253;SDS011;1639;42.804;23.342;2023-06-14T08:31:00;12.23;;;4.50;;
3253;SDS011;1639;42.804;23.342;2023-06-14T08:33:25;6.77;;;3.80;;
3253;SDS011;1639;42.804;23.342;2023-06-14T08:35:51;8.40;;;4.43;;
3253;SDS011;1639;42.804;23.342;2023-06-14T08:38:16;11.10;;;4.43;;
3253;SDS011;1639;42.804;23.342;2023-06-14T08:40:42;6.80;;;4.23;;
3253;SDS011;1639;42.804;23.342;2023-06-14T08:43:07;10.10;;;4.20;;
3253;SDS011;1639;42.804;23.342;2023-06-14T08:45:33;8.30;;;4.83;;
3253;SDS011;1639;42.804;23.342;2023-06-14T08:47:58;11.57;;;3.90;;
3253;SDS011;1639;42.804;23.342;2023-06-14T08:50:25;7.53;;;3.27;;
3253;SDS011;1639;42.804;23.342;2023-06-14T08:52:53;6.97;;;3.90;;
3253;SDS011;1639;42.804;23.342;2023-06-14T08:55:21;8.00;;;4.40;;
3253;SDS011;1639;42.804;23.342;2023-06-14T08:57:50;8.70;;;3.70;;
3253;SDS011;1639;42.804;23.342;2023-06-14T09:00:18;8.80;;;4.20;;
3253;SDS011;1639;42.804;23.342;2023-06-14T09:02:45;9.87;;;4.53;;
3253;SDS011;1639;42.804;23.342;2023-06-14T09:05:11;10.23;;;5.30;;
3253;SDS011;1639;42.804;23.342;2023-06-14T09:07:38;8.70;;;4.40;;
3253;SDS011;1639;42.804;23.342;2023-06-14T09:10:13;7.93;;;4.03;;
3253;SDS011;1639;42.804;23.342;2023-06-14T09:12:40;7.70;;;4.40;;
3253;SDS011;1639;42.804;23.342;2023-06-14T09:15:06;5.40;;;2.80;;
3253;SDS011;1639;42.804;23.342;2023-06-14T09:17:33;7.70;;;4.00;;
3253;SDS011;1639;42.804;23.342;2023-06-14T09:20:05;5.87;;;3.13;;
3253;SDS011;1639;42.804;23.342;2023-06-14T09:22:34;9.30;;;3.50;;
3253;SDS011;1639;42.804;23.342;2023-06-14T09:24:59;5.70;;;3.00;;
3253;SDS011;1639;42.804;23.342;2023-06-14T09:27:28;6.90;;;3.60;;
3253;SDS011;1639;42.804;23.342;2023-06-14T09:29:54;8.00;;;3.63;;
3253;SDS011;1639;42.804;23.342;2023-06-14T09:32:20;8.50;;;3.73;;
3253;SDS011;1639;42.804;23.342;2023-06-14T09:34:47;6.87;;;3.83;;
3253;SDS011;1639;42.804;23.342;2023-06-14T09:37:13;7.80;;;3.80;;
3253;SDS011;1639;42.804;23.342;2023-06-14T09:39:51;7.00;;;3.60;;
3253;SDS011;1639;42.804;23.342;2023-06-14T09:42:17;6.33;;;3.00;;
3253;SDS011;1639;42.804;23.342;2023-06-14T09:44:45;5.67;;;3.00;;
3253;SDS011;1639;42.804;23.342;2023-06-14T09:47:13;8.60;;;3.87;;
3253;SDS011;1639;42.804;23.342;2023-06-14T09:49:40;11.20;;;3.73;;
3253;SDS011;1639;42.804;23.342;2023-06-14T09:52:06;10.33;;;3.63;;
3253;SDS011;1639;42.804;23.342;2023-06-14T09:54:35;7.90;;;4.13;;
3253;SDS011;1639;42.804;23.342;2023-06-14T09:57:07;9.40;;;4.90;;
3253;SDS011;1639;42.804;23.342;2023-06-14T09:59:36;10.27;;;4.33;;
3253;SDS011;1639;42.804;23.342;2023-06-14T10:02:08;11.13;;;5.00;;
3253;SDS011;1639;42.804;23.342;2023-06-14T10:04:37;12.33;;;4.17;;
3253;SDS011;1639;42.804;23.342;2023-06-14T10:07:05;6.90;;;4.10;;
3253;SDS011;1639;42.804;23.342;2023-06-14T10:09:30;5.70;;;3.37;;
3253;SDS011;1639;42.804;23.342;2023-06-14T10:11:56;6.30;;;3.50;;
3253;SDS011;1639;42.804;23.342;2023-06-14T10:14:22;14.30;;;4.30;;
3253;SDS011;1639;42.804;23.342;2023-06-14T10:24:33;9.00;;;4.37;;
3253;SDS011;1639;42.804;23.342;2023-06-14T10:27:05;5.67;;;3.47;;
3253;SDS011;1639;42.804;23.342;2023-06-14T10:29:35;6.80;;;3.60;;
3253;SDS011;1639;42.804;23.342;2023-06-14T10:32:27;7.70;;;4.53;;
3253;SDS011;1639;42.804;23.342;2023-06-14T10:37:31;5.83;;;3.63;;
3253;SDS011;1639;42.804;23.342;2023-06-14T10:39:57;8.90;;;4.53;;
3253;SDS011;1639;42.804;23.342;2023-06-14T10:42:23;6.20;;;3.87;;
3253;SDS011;1639;42.804;23.342;2023-06-14T10:44:53;7.60;;;4.27;;
3253;SDS011;1639;42.804;23.342;2023-06-14T10:47:30;7.50;;;3.97;;
3253;SDS011;1639;42.804;23.342;2023-06-14T10:50:05;6.40;;;3.30;;
3253;SDS011;1639;42.804;23.342;2023-06-14T10:52:39;7.60;;;4.07;;
3253;SDS011;1639;42.804;23.342;2023-06-14T10:55:13;6.00;;;3.60;;
3253;SDS011;1639;42.804;23.342;2023-06-14T11:00:14;6.70;;;4.00;;
3253;SDS011;1639;42.804;23.342;2023-06-14T11:05:40;7.10;;;4.37;;
3253;SDS011;1639;42.804;23.342;2023-06-14T11:11:06;9.30;;;4.70;;
3253;SDS011;1639;42.804;23.342;2023-06-14T11:13:33;7.93;;;3.70;;
3253;SDS011;1639;42.804;23.342;2023-06-14T11:16:01;8.00;;;4.10;;
3253;SDS011;1639;42.804;23.342;2023-06-14T11:18:28;8.73;;;4.77;;
3253;SDS011;1639;42.804;23.342;2023-06-14T11:20:53;6.73;;;3.90;;
3253;SDS011;1639;42.804;23.342;2023-06-14T11:23:19;7.80;;;4.30;;
3253;SDS011;1639;42.804;23.342;2023-06-14T11:25:49;6.60;;;3.43;;
3253;SDS011;1639;42.804;23.342;2023-06-14T11:28:18;8.23;;;3.87;;
3253;SDS011;1639;42.804;23.342;2023-06-14T11:30:48;7.90;;;4.13;;
3253;SDS011;1639;42.804;23.342;2023-06-14T11:33:17;5.30;;;3.20;;
3253;SDS011;1639;42.804;23.342;2023-06-14T11:35:46;11.83;;;4.30;;
3253;SDS011;1639;42.804;23.342;2023-06-14T11:38:11;8.13;;;4.37;;
3253;SDS011;1639;42.804;23.342;2023-06-14T11:40:37;7.27;;;3.97;;
3253;SDS011;1639;42.804;23.342;2023-06-14T11:43:03;10.87;;;4.37;;
3253;SDS011;1639;42.804;23.342;2023-06-14T11:45:29;6.37;;;3.77;;
3253;SDS011;1639;42.804;23.342;2023-06-14T11:47:56;9.97;;;4.97;;
3253;SDS011;1639;42.804;23.342;2023-06-14T11:50:23;10.57;;;4.87;;
3253;SDS011;1639;42.804;23.342;2023-06-14T11:52:58;9.43;;;4.00;;
3253;SDS011;1639;42.804;23.342;2023-06-14T11:55:28;7.33;;;3.70;;
3253;SDS011;1639;42.804;23.342;2023-06-14T11:57:54;7.43;;;4.07;;
3253;SDS011;1639;42.804;23.342;2023-06-14T12:00:23;5.83;;;3.20;;
3253;SDS011;1639;42.804;23.342;2023-06-14T12:02:53;6.40;;;3.30;;
3253;SDS011;1639;42.804;23.342;2023-06-14T12:05:22;8.47;;;4.50;;
3253;SDS011;1639;42.804;23.342;2023-06-14T12:07:48;7.80;;;4.10;;
3253;SDS011;1639;42.804;23.342;2023-06-14T12:10:15;9.70;;;4.53;;
3253;SDS011;1639;42.804;23.342;2023-06-14T12:12:41;6.23;;;3.70;;
3253;SDS011;1639;42.804;23.342;2023-06-14T12:15:08;6.57;;;3.40;;
3253;SDS011;1639;42.804;23.342;2023-06-14T12:17:36;7.83;;;3.40;;
3253;SDS011;1639;42.804;23.342;2023-06-14T12:20:07;7.90;;;3.60;;
3253;SDS011;1639;42.804;23.342;2023-06-14T12:22:38;5.70;;;3.27;;
3253;SDS011;1639;42.804;23.342;2023-06-14T12:25:30;5.83;;;4.30;;
3253;SDS011;1639;42.804;23.342;2023-06-14T12:27:58;5.70;;;3.03;;
3253;SDS011;1639;42.804;23.342;2023-06-14T12:30:24;7.40;;;4.03;;
3253;SDS011;1639;42.804;23.342;2023-06-14T12:32:50;7.53;;;3.77;;
3253;SDS011;1639;42.804;23.342;2023-06-14T12:35:16;8.80;;;3.37;;
3253;SDS011;1639;42.804;23.342;2023-06-14T12:37:43;6.20;;;3.20;;
3253;SDS011;1639;42.804;23.342;2023-06-14T12:40:09;8.37;;;3.80;;
3253;SDS011;1639;42.804;23.342;2023-06-14T12:42:36;7.40;;;3.73;;
3253;SDS011;1639;42.804;23.342;2023-06-14T12:45:02;6.83;;;3.13;;
3253;SDS011;1639;42.804;23.342;2023-06-14T12:47:27;6.17;;;3.20;;
3253;SDS011;1639;42.804;23.342;2023-06-14T12:49:53;6.70;;;4.43;;
3253;SDS011;1639;42.804;23.342;2023-06-14T12:52:18;7.63;;;3.57;;
3253;SDS011;1639;42.804;23.342;2023-06-14T12:54:43;6.13;;;3.63;;
3253;SDS011;1639;42.804;23.342;2023-06-14T12:57:09;8.50;;;3.00;;
3253;SDS011;1639;42.804;23.342;2023-06-14T12:59:35;6.83;;;3.37;;
3253;SDS011;1639;42.804;23.342;2023-06-14T13:02:11;6.93;;;3.30;;
3253;SDS011;1639;42.804;23.342;2023-06-14T13:04:36;8.70;;;4.07;;
3253;SDS011;1639;42.804;23.342;2023-06-14T13:07:02;8.50;;;3.57;;
3253;SDS011;1639;42.804;23.342;2023-06-14T13:09:27;8.30;;;3.70;;
3253;SDS011;1639;42.804;23.342;2023-06-14T13:11:52;7.87;;;3.40;;
3253;SDS011;1639;42.804;23.342;2023-06-14T13:14:18;7.67;;;3.60;;
3253;SDS011;1639;42.804;23.342;2023-06-14T13:16:43;6.77;;;3.40;;
3253;SDS011;1639;42.804;23.342;2023-06-14T13:19:09;5.10;;;2.40;;
3253;SDS011;1639;42.804;23.342;2023-06-14T13:21:34;8.10;;;3.30;;
3253;SDS011;1639;42.804;23.342;2023-06-14T13:23:59;6.53;;;2.90;;
3253;SDS011;1639;42.804;23.342;2023-06-14T13:26:25;6.40;;;2.70;;
3253;SDS011;1639;42.804;23.342;2023-06-14T13:28:51;6.47;;;2.50;;
3253;SDS011;1639;42.804;23.342;2023-06-14T13:31:17;7.63;;;2.80;;
3253;SDS011;1639;42.804;23.342;2023-06-14T13:33:42;8.90;;;2.47;;
3253;SDS011;1639;42.804;23.342;2023-06-14T13:36:08;8.47;;;2.70;;
3253;SDS011;1639;42.804;23.342;2023-06-14T13:38:33;6.07;;;3.00;;
3253;SDS011;1639;42.804;23.342;2023-06-14T13:40:58;9.33;;;3.57;;
3253;SDS011;1639;42.804;23.342;2023-06-14T13:43:24;5.93;;;3.50;;
3253;SDS011;1639;42.804;23.342;2023-06-14T13:45:49;7.90;;;3.60;;
3253;SDS011;1639;42.804;23.342;2023-06-14T13:48:15;10.13;;;3.80;;
3253;SDS011;1639;42.804;23.342;2023-06-14T13:50:40;8.30;;;4.00;;
3253;SDS011;1639;42.804;23.342;2023-06-14T13:53:05;7.77;;;3.57;;
3253;SDS011;1639;42.804;23.342;2023-06-14T13:55:31;6.00;;;3.77;;
3253;SDS011;1639;42.804;23.342;2023-06-14T13:57:56;5.67;;;3.00;;
3253;SDS011;1639;42.804;23.342;2023-06-14T14:00:22;7.37;;;3.83;;
3253;SDS011;1639;42.804;23.342;2023-06-14T14:02:47;5.40;;;3.20;;
3253;SDS011;1639;42.804;23.342;2023-06-14T14:05:15;6.30;;;2.37;;
3253;SDS011;1639;42.804;23.342;2023-06-14T14:07:41;5.33;;;2.10;;
3253;SDS011;1639;42.804;23.342;2023-06-14T14:10:07;6.00;;;1.90;;
3253;SDS011;1639;42.804;23.342;2023-06-14T14:12:33;5.93;;;2.10;;
3253;SDS011;1639;42.804;23.342;2023-06-14T14:14:59;7.20;;;2.40;;
3253;SDS011;1639;42.804;23.342;2023-06-14T14:17:24;9.30;;;2.57;;
3253;SDS011;1639;42.804;23.342;2023-06-14T14:19:50;5.20;;;2.13;;
3253;SDS011;1639;42.804;23.342;2023-06-14T14:22:15;6.13;;;2.00;;
3253;SDS011;1639;42.804;23.342;2023-06-14T14:24:40;6.53;;;3.03;;
3253;SDS011;1639;42.804;23.342;2023-06-14T14:27:06;6.60;;;2.63;;
3253;SDS011;1639;42.804;23.342;2023-06-14T14:29:32;6.17;;;2.50;;
3253;SDS011;1639;42.804;23.342;2023-06-14T14:31:58;5.70;;;2.80;;
3253;SDS011;1639;42.804;23.342;2023-06-14T14:34:26;5.10;;;2.77;;
3253;SDS011;1639;42.804;23.342;2023-06-14T14:36:52;6.10;;;2.63;;
3253;SDS011;1639;42.804;23.342;2023-06-14T14:39:17;6.10;;;3.40;;
3253;SDS011;1639;42.804;23.342;2023-06-14T14:41:43;5.93;;;3.20;;
3253;SDS011;1639;42.804;23.342;2023-06-14T14:44:08;5.60;;;3.03;;
3253;SDS011;1639;42.804;23.342;2023-06-14T14:46:33;6.40;;;3.60;;
3253;SDS011;1639;42.804;23.342;2023-06-14T14:48:59;10.80;;;3.80;;
3253;SDS011;1639;42.804;23.342;2023-06-14T14:51:25;7.80;;;4.47;;
3253;SDS011;1639;42.804;23.342;2023-06-14T14:53:50;12.77;;;5.27;;
3253;SDS011;1639;42.804;23.342;2023-06-14T14:56:16;9.10;;;4.20;;
3253;SDS011;1639;42.804;23.342;2023-06-14T14:58:42;7.83;;;4.67;;
3253;SDS011;1639;42.804;23.342;2023-06-14T15:01:07;8.40;;;3.63;;
3253;SDS011;1639;42.804;23.342;2023-06-14T15:03:33;8.20;;;4.43;;
3253;SDS011;1639;42.804;23.342;2023-06-14T15:05:58;8.53;;;4.27;;
3253;SDS011;1639;42.804;23.342;2023-06-14T15:08:24;10.10;;;4.07;;
3253;SDS011;1639;42.804;23.342;2023-06-14T15:10:49;9.70;;;5.00;;
3253;SDS011;1639;42.804;23.342;2023-06-14T15:13:15;9.00;;;4.90;;
3253;SDS011;1639;42.804;23.342;2023-06-14T15:15:40;7.57;;;3.87;;
3253;SDS011;1639;42.804;23.342;2023-06-14T15:18:06;7.07;;;3.27;;
3253;SDS011;1639;42.804;23.342;2023-06-14T15:20:31;6.30;;;3.83;;
3253;SDS011;1639;42.804;23.342;2023-06-14T15:22:57;7.27;;;3.67;;